sensor_id;sensor_type;location;lat;lon;timestamp;pressure;altitude;pressure_sealevel;temperature;humidity
10014;BME280;45684;48.358;10.746;2023-09-19T00:00:38;95904.31;;;15.64;100.00
10014;BME280;45684;48.358;10.746;2023-09-19T00:03:08;95908.63;;;15.65;100.00
10014;BME280;45684;48.358;10.746;2023-09-19T00:05:37;95908.28;;;15.67;100.00
10014;BME280;45684;48.358;10.746;2023-09-19T00:08:06;95908.34;;;15.70;100.00
10014;BME280;45684;48.358;10.746;2023-09-19T00:10:34;95909.22;;;15.74;100.00
10014;BME280;45684;48.358;10.746;2023-09-19T00:13:03;95911.56;;;15.76;100.00
10014;BME280;45684;48.358;10.746;2023-09-19T00:15:37;95903.75;;;15.74;100.00
10014;BME280;45684;48.358;10.746;2023-09-19T00:18:05;95895.56;;;15.74;100.00
10014;BME280;45684;48.358;10.746;2023-09-19T00:20:36;95903.34;;;15.72;100.00
10014;BME280;45684;48.358;10.746;2023-09-19T00:23:05;95904.13;;;15.73;100.00
10014;BME280;45684;48.358;10.746;2023-09-19T00:25:35;95907.63;;;15.73;100.00
10014;BME280;45684;48.358;10.746;2023-09-19T00:28:04;95920.03;;;15.71;100.00
10014;BME280;45684;48.358;10.746;2023-09-19T00:30:34;95925.94;;;15.73;100.00
10014;BME280;45684;48.358;10.746;2023-09-19T00:33:02;95926.72;;;15.73;100.00
10014;BME280;45684;48.358;10.746;2023-09-19T00:35:33;95929.09;;;15.75;100.00
10014;BME280;45684;48.358;10.746;2023-09-19T00:38:03;95928.75;;;15.76;100.00
10014;BME280;45684;48.358;10.746;2023-09-19T00:40:33;95936.19;;;15.79;100.00
10014;BME280;45684;48.358;10.746;2023-09-19T00:43:02;95930.84;;;15.83;100.00
10014;BME280;45684;48.358;10.746;2023-09-19T00:45:30;95929.69;;;15.84;100.00
10014;BME280;45684;48.358;10.746;2023-09-19T00:48:00;95925.75;;;15.81;100.00
10014;BME280;45684;48.358;10.746;2023-09-19T00:50:30;95937.06;;;15.84;100.00
10014;BME280;45684;48.358;10.746;2023-09-19T00:52:59;95939.00;;;15.83;100.00
10014;BME280;45684;48.358;10.746;2023-09-19T00:55:29;95941.47;;;15.88;100.00
10014;BME280;45684;48.358;10.746;2023-09-19T00:57:59;95943.47;;;15.91;100.00
10014;BME280;45684;48.358;10.746;2023-09-19T01:00:28;95932.22;;;15.93;100.00
10014;BME280;45684;48.358;10.746;2023-09-19T01:02:57;95925.19;;;15.92;100.00
10014;BME280;45684;48.358;10.746;2023-09-19T01:05:25;95932.91;;;15.90;100.00
10014;BME280;45684;48.358;10.746;2023-09-19T01:07:52;95930.91;;;15.87;100.00
10014;BME280;45684;48.358;10.746;2023-09-19T01:10:21;95942.88;;;15.82;100.00
10014;BME280;45684;48.358;10.746;2023-09-19T01:12:58;95945.91;;;15.77;100.00
10014;BME280;45684;48.358;10.746;2023-09-19T01:15:38;95948.16;;;15.75;100.00
10014;BME280;45684;48.358;10.746;2023-09-19T01:18:16;95946.16;;;15.72;100.00
10014;BME280;45684;48.358;10.746;2023-09-19T01:20:57;95945.28;;;15.68;100.00
10014;BME280;45684;48.358;10.746;2023-09-19T01:23:37;95940.88;;;15.63;100.00
10014;BME280;45684;48.358;10.746;2023-09-19T01:26:11;95949.31;;;15.58;100.00
10014;BME280;45684;48.358;10.746;2023-09-19T01:28:52;95943.09;;;15.57;100.00
10014;BME280;45684;48.358;10.746;2023-09-19T01:31:28;95943.88;;;15.58;100.00
10014;BME280;45684;48.358;10.746;2023-09-19T01:34:02;95948.88;;;15.56;100.00
10014;BME280;45684;48.358;10.746;2023-09-19T01:36:34;95950.03;;;15.55;100.00
10014;BME280;45684;48.358;10.746;2023-09-19T01:39:04;95946.88;;;15.53;100.00
10014;BME280;45684;48.358;10.746;2023-09-19T01:41:47;95936.66;;;15.50;100.00
10014;BME280;45684;48.358;10.746;2023-09-19T01:44:31;95940.88;;;15.47;100.00
10014;BME280;45684;48.358;10.746;2023-09-19T01:47:11;95946.69;;;15.46;100.00
10014;BME280;45684;48.358;10.746;2023-09-19T01:49:50;95941.25;;;15.46;100.00
10014;BME280;45684;48.358;10.746;2023-09-19T01:52:28;95940.00;;;15.43;100.00
10014;BME280;45684;48.358;10.746;2023-09-19T01:55:03;95940.34;;;15.42;100.00
10014;BME280;45684;48.358;10.746;2023-09-19T01:57:40;95945.81;;;15.42;100.00
10014;BME280;45684;48.358;10.746;2023-09-19T02:00:10;95946.16;;;15.40;100.00
10014;BME280;45684;48.358;10.746;2023-09-19T02:02:44;95947.31;;;15.39;100.00
10014;BME280;45684;48.358;10.746;2023-09-19T02:05:13;95945.72;;;15.38;100.00
10014;BME280;45684;48.358;10.746;2023-09-19T02:07:41;95951.16;;;15.38;100.00
10014;BME280;45684;48.358;10.746;2023-09-19T02:10:10;95961.63;;;15.36;100.00
10014;BME280;45684;48.358;10.746;2023-09-19T02:12:39;95958.13;;;15.36;100.00
10014;BME280;45684;48.358;10.746;2023-09-19T02:15:07;95964.34;;;15.36;100.00
10014;BME280;45684;48.358;10.746;2023-09-19T02:17:35;95957.75;;;15.37;100.00
10014;BME280;45684;48.358;10.746;2023-09-19T02:20:07;95965.94;;;15.37;100.00
10014;BME280;45684;48.358;10.746;2023-09-19T02:22:36;95955.81;;;15.38;100.00
10014;BME280;45684;48.358;10.746;2023-09-19T02:25:06;95960.94;;;15.39;100.00
10014;BME280;45684;48.358;10.746;2023-09-19T02:27:35;95966.44;;;15.43;100.00
10014;BME280;45684;48.358;10.746;2023-09-19T02:30:04;95959.06;;;15.43;100.00
10014;BME280;45684;48.358;10.746;2023-09-19T02:32:33;95964.97;;;15.45;100.00
10014;BME280;45684;48.358;10.746;2023-09-19T02:35:08;95970.84;;;15.47;100.00
10014;BME280;45684;48.358;10.746;2023-09-19T02:37:38;95976.31;;;15.47;100.00
10014;BME280;45684;48.358;10.746;2023-09-19T02:40:07;95966.66;;;15.50;100.00
10014;BME280;45684;48.358;10.746;2023-09-19T02:42:46;95973.25;;;15.49;100.00
10014;BME280;45684;48.358;10.746;2023-09-19T02:45:16;95978.69;;;15.49;100.00
10014;BME280;45684;48.358;10.746;2023-09-19T02:47:45;95978.69;;;15.49;100.00
10014;BME280;45684;48.358;10.746;2023-09-19T02:50:16;95979.03;;;15.47;100.00
10014;BME280;45684;48.358;10.746;2023-09-19T02:52:45;95979.28;;;15.42;100.00
10014;BME280;45684;48.358;10.746;2023-09-19T02:55:15;95985.78;;;15.38;100.00
10014;BME280;45684;48.358;10.746;2023-09-19T02:57:46;95990.47;;;15.37;100.00
10014;BME280;45684;48.358;10.746;2023-09-19T03:00:14;95995.53;;;15.39;100.00
10014;BME280;45684;48.358;10.746;2023-09-19T03:02:42;95990.28;;;15.46;100.00
10014;BME280;45684;48.358;10.746;2023-09-19T03:05:11;95998.19;;;15.51;100.00
10014;BME280;45684;48.358;10.746;2023-09-19T03:07:41;95992.75;;;15.51;100.00
10014;BME280;45684;48.358;10.746;2023-09-19T03:10:13;95999.72;;;15.48;100.00
10014;BME280;45684;48.358;10.746;2023-09-19T03:12:43;96000.50;;;15.49;100.00
10014;BME280;45684;48.358;10.746;2023-09-19T03:15:11;95997.50;;;15.54;100.00
10014;BME280;45684;48.358;10.746;2023-09-19T03:17:42;96001.53;;;15.60;100.00
10014;BME280;45684;48.358;10.746;2023-09-19T03:20:11;96007.13;;;15.64;100.00
10014;BME280;45684;48.358;10.746;2023-09-19T03:22:42;96002.53;;;15.68;100.00
10014;BME280;45684;48.358;10.746;2023-09-19T03:25:10;96006.16;;;15.72;100.00
10014;BME280;45684;48.358;10.746;2023-09-19T03:27:41;96002.38;;;15.76;100.00
10014;BME280;45684;48.358;10.746;2023-09-19T03:30:10;96007.88;;;15.80;100.00
10014;BME280;45684;48.358;10.746;2023-09-19T03:32:44;96002.88;;;15.82;100.00
10014;BME280;45684;48.358;10.746;2023-09-19T03:35:14;96004.88;;;15.85;100.00
10014;BME280;45684;48.358;10.746;2023-09-19T03:37:43;96008.84;;;15.88;100.00
10014;BME280;45684;48.358;10.746;2023-09-19T03:40:13;95996.00;;;15.88;100.00
10014;BME280;45684;48.358;10.746;2023-09-19T03:42:42;96003.81;;;15.90;100.00
10014;BME280;45684;48.358;10.746;2023-09-19T03:45:12;96005.44;;;15.91;100.00
10014;BME280;45684;48.358;10.746;2023-09-19T03:47:47;96012.44;;;15.92;100.00
10014;BME280;45684;48.358;10.746;2023-09-19T03:50:17;96000.41;;;15.93;100.00
10014;BME280;45684;48.358;10.746;2023-09-19T03:52:46;96009.03;;;15.95;100.00
10014;BME280;45684;48.358;10.746;2023-09-19T03:55:14;96005.56;;;15.98;100.00
10014;BME280;45684;48.358;10.746;2023-09-19T03:57:48;96012.59;;;15.99;100.00
10014;BME280;45684;48.358;10.746;2023-09-19T04:00:16;96007.59;;;16.01;100.00
10014;BME280;45684;48.358;10.746;2023-09-19T04:02:47;96011.47;;;16.00;100.00
10014;BME280;45684;48.358;10.746;2023-09-19T04:05:16;96016.56;;;16.01;100.00
10014;BME280;45684;48.358;10.746;2023-09-19T04:07:46;96004.09;;;16.00;100.00
10014;BME280;45684;48.358;10.746;2023-09-19T04:10:14;96009.44;;;15.97;100.00
10014;BME280;45684;48.358;10.746;2023-09-19T04:12:50;96020.78;;;15.99;100.00
10014;BME280;45684;48.358;10.746;2023-09-19T04:15:19;96022.31;;;15.96;100.00
10014;BME280;45684;48.358;10.746;2023-09-19T04:17:50;96008.22;;;15.94;100.00
10014;BME280;45684;48.358;10.746;2023-09-19T04:20:19;96018.69;;;15.92;100.00
10014;BME280;45684;48.358;10.746;2023-09-19T04:22:50;96018.59;;;15.89;100.00
10014;BME280;45684;48.358;10.746;2023-09-19T04:25:18;96030.25;;;15.86;100.00
10014;BME280;45684;48.358;10.746;2023-09-19T04:27:47;96024.25;;;15.80;100.00
10014;BME280;45684;48.358;10.746;2023-09-19T04:30:15;96022.22;;;15.77;100.00
10014;BME280;45684;48.358;10.746;2023-09-19T04:32:43;96024.41;;;15.71;100.00
10014;BME280;45684;48.358;10.746;2023-09-19T04:35:11;96026.72;;;15.69;100.00
10014;BME280;45684;48.358;10.746;2023-09-19T04:37:40;96038.31;;;15.66;100.00
10014;BME280;45684;48.358;10.746;2023-09-19T04:40:11;96032.06;;;15.66;100.00
10014;BME280;45684;48.358;10.746;2023-09-19T04:42:40;96035.50;;;15.63;100.00
10014;BME280;45684;48.358;10.746;2023-09-19T04:45:09;96034.25;;;15.60;100.00
10014;BME280;45684;48.358;10.746;2023-09-19T04:47:38;96039.59;;;15.56;100.00
10014;BME280;45684;48.358;10.746;2023-09-19T04:50:08;96037.50;;;15.50;100.00
10014;BME280;45684;48.358;10.746;2023-09-19T04:52:39;96047.53;;;15.46;100.00
10014;BME280;45684;48.358;10.746;2023-09-19T04:55:10;96044.78;;;15.46;100.00
10014;BME280;45684;48.358;10.746;2023-09-19T04:57:44;96047.53;;;15.46;100.00
10014;BME280;45684;48.358;10.746;2023-09-19T05:00:13;96054.13;;;15.45;100.00
10014;BME280;45684;48.358;10.746;2023-09-19T05:02:43;96063.50;;;15.47;100.00
10014;BME280;45684;48.358;10.746;2023-09-19T05:05:12;96051.50;;;15.48;100.00
10014;BME280;45684;48.358;10.746;2023-09-19T05:07:41;96063.59;;;15.51;100.00
10014;BME280;45684;48.358;10.746;2023-09-19T05:10:12;96068.00;;;15.55;100.00
10014;BME280;45684;48.358;10.746;2023-09-19T05:12:40;96066.53;;;15.58;100.00
10014;BME280;45684;48.358;10.746;2023-09-19T05:15:10;96075.94;;;15.61;100.00
10014;BME280;45684;48.358;10.746;2023-09-19T05:17:38;96076.84;;;15.65;100.00
10014;BME280;45684;48.358;10.746;2023-09-19T05:20:07;96077.31;;;15.67;100.00
10014;BME280;45684;48.358;10.746;2023-09-19T05:22:39;96089.84;;;15.71;100.00
10014;BME280;45684;48.358;10.746;2023-09-19T05:25:08;96089.16;;;15.74;100.00
10014;BME280;45684;48.358;10.746;2023-09-19T05:27:37;96086.53;;;15.78;100.00
10014;BME280;45684;48.358;10.746;2023-09-19T05:30:05;96094.81;;;15.81;100.00
10014;BME280;45684;48.358;10.746;2023-09-19T05:32:34;96082.06;;;15.86;100.00
10014;BME280;45684;48.358;10.746;2023-09-19T05:35:02;96092.59;;;15.87;100.00
10014;BME280;45684;48.358;10.746;2023-09-19T05:37:34;96101.22;;;15.89;100.00
10014;BME280;45684;48.358;10.746;2023-09-19T05:40:03;96094.69;;;15.94;100.00
10014;BME280;45684;48.358;10.746;2023-09-19T05:42:33;96096.72;;;15.97;100.00
10014;BME280;45684;48.358;10.746;2023-09-19T05:45:03;96106.16;;;15.99;100.00
10014;BME280;45684;48.358;10.746;2023-09-19T05:47:33;96104.66;;;16.02;100.00
10014;BME280;45684;48.358;10.746;2023-09-19T05:50:01;96102.81;;;16.06;100.00
10014;BME280;45684;48.358;10.746;2023-09-19T05:52:29;96102.16;;;16.13;100.00
10014;BME280;45684;48.358;10.746;2023-09-19T05:54:57;96107.34;;;16.18;100.00
10014;BME280;45684;48.358;10.746;2023-09-19T05:57:25;96111.75;;;16.22;100.00
10014;BME280;45684;48.358;10.746;2023-09-19T05:59:54;96112.63;;;16.26;100.00
10014;BME280;45684;48.358;10.746;2023-09-19T06:02:23;96103.75;;;16.29;100.00
10014;BME280;45684;48.358;10.746;2023-09-19T06:04:53;96112.81;;;16.33;100.00
10014;BME280;45684;48.358;10.746;2023-09-19T06:07:22;96114.81;;;16.37;100.00
10014;BME280;45684;48.358;10.746;2023-09-19T06:09:52;96116.75;;;16.36;100.00
10014;BME280;45684;48.358;10.746;2023-09-19T06:12:21;96122.66;;;16.38;100.00
10014;BME280;45684;48.358;10.746;2023-09-19T06:14:49;96127.38;;;16.41;100.00
10014;BME280;45684;48.358;10.746;2023-09-19T06:17:17;96125.22;;;16.47;100.00
10014;BME280;45684;48.358;10.746;2023-09-19T06:19:47;96116.28;;;16.50;100.00
10014;BME280;45684;48.358;10.746;2023-09-19T06:22:17;96127.66;;;16.52;100.00
10014;BME280;45684;48.358;10.746;2023-09-19T06:24:45;96131.59;;;16.54;100.00
10014;BME280;45684;48.358;10.746;2023-09-19T06:27:13;96130.13;;;16.57;100.00
10014;BME280;45684;48.358;10.746;2023-09-19T06:29:41;96138.03;;;16.62;100.00
10014;BME280;45684;48.358;10.746;2023-09-19T06:32:09;96136.88;;;16.63;100.00
10014;BME280;45684;48.358;10.746;2023-09-19T06:34:37;96134.22;;;16.67;100.00
10014;BME280;45684;48.358;10.746;2023-09-19T06:37:11;96133.63;;;16.73;100.00
10014;BME280;45684;48.358;10.746;2023-09-19T06:39:39;96133.34;;;16.78;100.00
10014;BME280;45684;48.358;10.746;2023-09-19T06:42:08;96137.53;;;16.92;100.00
10014;BME280;45684;48.358;10.746;2023-09-19T06:44:37;96148.34;;;17.04;100.00
10014;BME280;45684;48.358;10.746;2023-09-19T06:47:05;96146.19;;;17.13;100.00
10014;BME280;45684;48.358;10.746;2023-09-19T06:49:33;96147.47;;;17.19;100.00
10014;BME280;45684;48.358;10.746;2023-09-19T06:52:02;96156.53;;;17.23;100.00
10014;BME280;45684;48.358;10.746;2023-09-19T06:54:31;96155.03;;;17.26;100.00
10014;BME280;45684;48.358;10.746;2023-09-19T06:57:03;96161.72;;;17.28;100.00
10014;BME280;45684;48.358;10.746;2023-09-19T06:59:30;96166.75;;;17.26;100.00
10014;BME280;45684;48.358;10.746;2023-09-19T07:01:59;96162.44;;;17.25;100.00
10014;BME280;45684;48.358;10.746;2023-09-19T07:04:27;96179.09;;;17.20;100.00
10014;BME280;45684;48.358;10.746;2023-09-19T07:06:55;96182.56;;;17.17;100.00
10014;BME280;45684;48.358;10.746;2023-09-19T07:09:22;96184.44;;;17.13;100.00
10014;BME280;45684;48.358;10.746;2023-09-19T07:11:55;96183.88;;;17.23;100.00
10014;BME280;45684;48.358;10.746;2023-09-19T07:14:23;96182.59;;;17.37;100.00
10014;BME280;45684;48.358;10.746;2023-09-19T07:16:51;96185.91;;;17.46;100.00
10014;BME280;45684;48.358;10.746;2023-09-19T07:19:18;96188.41;;;17.54;100.00
10014;BME280;45684;48.358;10.746;2023-09-19T07:21:46;96188.25;;;17.67;100.00
10014;BME280;45684;48.358;10.746;2023-09-19T07:24:16;96188.13;;;17.79;100.00
10014;BME280;45684;48.358;10.746;2023-09-19T07:26:45;96190.50;;;17.80;100.00
10014;BME280;45684;48.358;10.746;2023-09-19T07:29:14;96190.38;;;17.73;100.00
10014;BME280;45684;48.358;10.746;2023-09-19T07:31:42;96178.97;;;17.71;100.00
10014;BME280;45684;48.358;10.746;2023-09-19T07:34:11;96184.44;;;17.71;100.00
10014;BME280;45684;48.358;10.746;2023-09-19T07:36:40;96185.38;;;17.79;100.00
10014;BME280;45684;48.358;10.746;2023-09-19T07:39:09;96185.03;;;17.80;100.00
10014;BME280;45684;48.358;10.746;2023-09-19T07:41:48;96183.59;;;17.87;100.00
10014;BME280;45684;48.358;10.746;2023-09-19T07:44:18;96184.50;;;17.94;100.00
10014;BME280;45684;48.358;10.746;2023-09-19T07:46:46;96189.31;;;18.01;100.00
10014;BME280;45684;48.358;10.746;2023-09-19T07:49:17;96200.44;;;18.12;100.00
10014;BME280;45684;48.358;10.746;2023-09-19T07:51:46;96195.66;;;18.28;100.00
10014;BME280;45684;48.358;10.746;2023-09-19T07:54:14;96197.16;;;18.48;100.00
10014;BME280;45684;48.358;10.746;2023-09-19T07:56:43;96199.28;;;18.81;100.00
10014;BME280;45684;48.358;10.746;2023-09-19T07:59:12;96207.50;;;19.08;100.00
10014;BME280;45684;48.358;10.746;2023-09-19T08:01:41;96203.63;;;19.43;100.00
10014;BME280;45684;48.358;10.746;2023-09-19T08:04:11;96215.44;;;19.77;100.00
10014;BME280;45684;48.358;10.746;2023-09-19T08:06:39;96211.56;;;20.15;100.00
10014;BME280;45684;48.358;10.746;2023-09-19T08:09:07;96220.44;;;20.42;100.00
10014;BME280;45684;48.358;10.746;2023-09-19T08:11:37;96212.38;;;20.60;100.00
10014;BME280;45684;48.358;10.746;2023-09-19T08:14:05;96217.63;;;20.79;100.00
10014;BME280;45684;48.358;10.746;2023-09-19T08:16:35;96218.72;;;20.68;100.00
10014;BME280;45684;48.358;10.746;2023-09-19T08:19:04;96219.41;;;20.54;100.00
10014;BME280;45684;48.358;10.746;2023-09-19T08:21:32;96239.66;;;20.38;100.00
10014;BME280;45684;48.358;10.746;2023-09-19T08:24:01;96241.22;;;20.39;100.00
10014;BME280;45684;48.358;10.746;2023-09-19T08:26:31;96244.13;;;20.54;100.00
10014;BME280;45684;48.358;10.746;2023-09-19T08:28:59;96235.25;;;20.71;100.00
10014;BME280;45684;48.358;10.746;2023-09-19T08:31:32;96237.25;;;20.78;100.00
10014;BME280;45684;48.358;10.746;2023-09-19T08:34:00;96229.50;;;20.91;100.00
10014;BME280;45684;48.358;10.746;2023-09-19T08:36:30;96237.84;;;21.05;100.00
10014;BME280;45684;48.358;10.746;2023-09-19T08:38:58;96231.22;;;21.09;100.00
10014;BME280;45684;48.358;10.746;2023-09-19T08:41:27;96231.72;;;20.74;100.00
10014;BME280;45684;48.358;10.746;2023-09-19T08:43:58;96233.38;;;20.82;100.00
10014;BME280;45684;48.358;10.746;2023-09-19T08:46:30;96229.53;;;20.94;100.00
10014;BME280;45684;48.358;10.746;2023-09-19T08:49:05;96240.16;;;20.96;100.00
10014;BME280;45684;48.358;10.746;2023-09-19T08:51:42;96237.44;;;21.03;100.00
10014;BME280;45684;48.358;10.746;2023-09-19T08:54:20;96239.00;;;21.00;100.00
10014;BME280;45684;48.358;10.746;2023-09-19T08:56:50;96250.31;;;20.92;100.00
10014;BME280;45684;48.358;10.746;2023-09-19T08:59:21;96240.97;;;21.00;100.00
10014;BME280;45684;48.358;10.746;2023-09-19T09:01:52;96235.53;;;21.10;100.00
10014;BME280;45684;48.358;10.746;2023-09-19T09:04:22;96243.06;;;21.17;100.00
10014;BME280;45684;48.358;10.746;2023-09-19T09:06:54;96252.88;;;21.18;100.00
10014;BME280;45684;48.358;10.746;2023-09-19T09:09:24;96247.41;;;21.22;100.00
10014;BME280;45684;48.358;10.746;2023-09-19T09:11:52;96261.56;;;21.24;100.00
10014;BME280;45684;48.358;10.746;2023-09-19T09:14:23;96261.47;;;21.09;100.00
10014;BME280;45684;48.358;10.746;2023-09-19T09:16:51;96251.31;;;21.21;100.00
10014;BME280;45684;48.358;10.746;2023-09-19T09:19:23;96260.56;;;21.53;100.00
10014;BME280;45684;48.358;10.746;2023-09-19T09:21:51;96262.66;;;21.74;100.00
10014;BME280;45684;48.358;10.746;2023-09-19T09:24:30;96258.28;;;21.66;100.00
10014;BME280;45684;48.358;10.746;2023-09-19T09:27:03;96266.06;;;21.53;100.00
10014;BME280;45684;48.358;10.746;2023-09-19T09:29:43;96265.09;;;21.24;100.00
10014;BME280;45684;48.358;10.746;2023-09-19T09:32:17;96262.25;;;21.10;100.00
10014;BME280;45684;48.358;10.746;2023-09-19T09:34:49;96258.78;;;21.20;100.00
10014;BME280;45684;48.358;10.746;2023-09-19T09:37:18;96259.69;;;21.31;100.00
10014;BME280;45684;48.358;10.746;2023-09-19T09:39:53;96274.34;;;21.50;100.00
10014;BME280;45684;48.358;10.746;2023-09-19T09:42:30;96267.31;;;21.67;100.00
10014;BME280;45684;48.358;10.746;2023-09-19T09:45:15;96268.81;;;21.53;100.00
10014;BME280;45684;48.358;10.746;2023-09-19T09:47:45;96271.06;;;21.33;100.00
10014;BME280;45684;48.358;10.746;2023-09-19T09:50:25;96270.88;;;21.12;100.00
10014;BME280;45684;48.358;10.746;2023-09-19T09:52:56;96280.91;;;20.86;100.00
10014;BME280;45684;48.358;10.746;2023-09-19T09:55:57;96285.88;;;20.70;100.00
10014;BME280;45684;48.358;10.746;2023-09-19T09:58:26;96278.22;;;20.90;100.00
10014;BME280;45684;48.358;10.746;2023-09-19T10:00:56;96270.75;;;20.91;100.00
10014;BME280;45684;48.358;10.746;2023-09-19T10:03:33;96273.84;;;20.85;100.00
10014;BME280;45684;48.358;10.746;2023-09-19T10:06:06;96280.84;;;20.79;100.00
10014;BME280;45684;48.358;10.746;2023-09-19T10:08:59;96280.53;;;20.84;100.00
10014;BME280;45684;48.358;10.746;2023-09-19T10:11:43;96290.28;;;20.78;100.00
10014;BME280;45684;48.358;10.746;2023-09-19T10:14:12;96279.69;;;20.80;100.00
10014;BME280;45684;48.358;10.746;2023-09-19T10:16:45;96279.66;;;20.77;100.00
10014;BME280;45684;48.358;10.746;2023-09-19T10:19:21;96274.66;;;20.89;100.00
10014;BME280;45684;48.358;10.746;2023-09-19T10:21:54;96271.66;;;21.09;100.00
10014;BME280;45684;48.358;10.746;2023-09-19T10:24:23;96269.38;;;21.18;100.00
10014;BME280;45684;48.358;10.746;2023-09-19T10:26:54;96274.50;;;21.20;99.52
10014;BME280;45684;48.358;10.746;2023-09-19T10:29:24;96274.22;;;21.32;99.20
10014;BME280;45684;48.358;10.746;2023-09-19T10:31:56;96276.38;;;21.71;99.51
10014;BME280;45684;48.358;10.746;2023-09-19T10:34:26;96279.66;;;22.05;97.08
10014;BME280;45684;48.358;10.746;2023-09-19T10:36:55;96280.47;;;22.02;93.00
10014;BME280;45684;48.358;10.746;2023-09-19T10:39:23;96281.63;;;22.01;94.25
10014;BME280;45684;48.358;10.746;2023-09-19T10:41:55;96280.94;;;22.22;94.22
10014;BME280;45684;48.358;10.746;2023-09-19T10:44:25;96276.25;;;22.33;93.81
10014;BME280;45684;48.358;10.746;2023-09-19T10:46:55;96275.44;;;22.29;94.42
10014;BME280;45684;48.358;10.746;2023-09-19T10:49:25;96293.16;;;22.21;95.08
10014;BME280;45684;48.358;10.746;2023-09-19T10:51:56;96281.72;;;22.11;97.21
10014;BME280;45684;48.358;10.746;2023-09-19T10:54:28;96286.78;;;22.06;95.23
10014;BME280;45684;48.358;10.746;2023-09-19T10:57:00;96288.00;;;22.19;95.13
10014;BME280;45684;48.358;10.746;2023-09-19T10:59:32;96284.09;;;22.20;98.51
10014;BME280;45684;48.358;10.746;2023-09-19T11:02:16;96290.69;;;22.05;98.11
10014;BME280;45684;48.358;10.746;2023-09-19T11:04:45;96289.09;;;21.97;96.11
10014;BME280;45684;48.358;10.746;2023-09-19T11:07:15;96285.16;;;21.94;99.05
10014;BME280;45684;48.358;10.746;2023-09-19T11:09:47;96286.34;;;21.93;95.54
10014;BME280;45684;48.358;10.746;2023-09-19T11:12:49;96291.31;;;21.66;96.67
10014;BME280;45684;48.358;10.746;2023-09-19T11:18:53;96290.09;;;20.57;100.00
10014;BME280;45684;48.358;10.746;2023-09-19T11:21:41;96291.31;;;20.26;100.00
10014;BME280;45684;48.358;10.746;2023-09-19T11:24:28;96290.47;;;20.22;100.00
10014;BME280;45684;48.358;10.746;2023-09-19T11:27:14;96290.06;;;20.53;100.00
10014;BME280;45684;48.358;10.746;2023-09-19T11:29:45;96286.25;;;21.13;100.00
10014;BME280;45684;48.358;10.746;2023-09-19T11:32:15;96287.84;;;21.21;100.00
10014;BME280;45684;48.358;10.746;2023-09-19T11:34:47;96282.78;;;21.23;100.00
10014;BME280;45684;48.358;10.746;2023-09-19T11:40:45;96284.75;;;21.92;100.00
10014;BME280;45684;48.358;10.746;2023-09-19T11:43:28;96291.00;;;21.78;99.41
10014;BME280;45684;48.358;10.746;2023-09-19T11:46:06;96286.94;;;21.54;100.00
10014;BME280;45684;48.358;10.746;2023-09-19T11:48:35;96279.22;;;21.85;100.00
10014;BME280;45684;48.358;10.746;2023-09-19T11:51:18;96268.00;;;22.29;94.71
10014;BME280;45684;48.358;10.746;2023-09-19T11:53:55;96284.97;;;22.60;94.85
10014;BME280;45684;48.358;10.746;2023-09-19T11:56:24;96280.66;;;22.87;89.14
10014;BME280;45684;48.358;10.746;2023-09-19T11:58:56;96273.97;;;23.17;90.27
10014;BME280;45684;48.358;10.746;2023-09-19T12:01:30;96268.47;;;23.10;82.11
10014;BME280;45684;48.358;10.746;2023-09-19T12:04:01;96273.19;;;23.06;76.40
10014;BME280;45684;48.358;10.746;2023-09-19T12:06:31;96271.19;;;22.88;80.19
10014;BME280;45684;48.358;10.746;2023-09-19T12:09:00;96262.56;;;23.15;80.32
10014;BME280;45684;48.358;10.746;2023-09-19T12:11:33;96257.38;;;23.31;76.90
10014;BME280;45684;48.358;10.746;2023-09-19T12:14:09;96256.19;;;23.43;79.16
10014;BME280;45684;48.358;10.746;2023-09-19T12:16:39;96255.78;;;23.52;76.31
10014;BME280;45684;48.358;10.746;2023-09-19T12:19:20;96260.19;;;23.03;77.07
10014;BME280;45684;48.358;10.746;2023-09-19T12:21:57;96251.94;;;22.96;83.21
10014;BME280;45684;48.358;10.746;2023-09-19T12:24:27;96247.19;;;23.14;80.21
10014;BME280;45684;48.358;10.746;2023-09-19T12:27:00;96244.03;;;23.19;76.31
10014;BME280;45684;48.358;10.746;2023-09-19T12:29:42;96238.47;;;23.26;76.58
10014;BME280;45684;48.358;10.746;2023-09-19T12:32:11;96242.75;;;23.70;72.63
10014;BME280;45684;48.358;10.746;2023-09-19T12:34:40;96235.94;;;23.92;71.54
10014;BME280;45684;48.358;10.746;2023-09-19T12:37:11;96237.03;;;24.06;70.56
10014;BME280;45684;48.358;10.746;2023-09-19T12:39:40;96235.88;;;24.07;66.72
10014;BME280;45684;48.358;10.746;2023-09-19T12:42:10;96232.69;;;24.15;66.84
10014;BME280;45684;48.358;10.746;2023-09-19T12:44:41;96225.28;;;23.95;69.21
10014;BME280;45684;48.358;10.746;2023-09-19T12:47:13;96235.22;;;23.63;70.37
10014;BME280;45684;48.358;10.746;2023-09-19T12:50:09;96232.53;;;23.38;69.59
10014;BME280;45684;48.358;10.746;2023-09-19T12:52:43;96225.09;;;23.21;74.59
10014;BME280;45684;48.358;10.746;2023-09-19T12:55:24;96220.38;;;23.18;75.22
10014;BME280;45684;48.358;10.746;2023-09-19T12:57:58;96221.59;;;22.96;78.70
10014;BME280;45684;48.358;10.746;2023-09-19T13:00:34;96223.16;;;23.04;75.43
10014;BME280;45684;48.358;10.746;2023-09-19T13:03:17;96216.38;;;23.40;73.96
10014;BME280;45684;48.358;10.746;2023-09-19T13:05:50;96210.00;;;23.58;67.55
10014;BME280;45684;48.358;10.746;2023-09-19T13:08:23;96214.00;;;23.46;68.17